Time;durP1;ratioP1;P1;durP2;ratioP2;P2;SDS_P1;SDS_P2;PMS_P1;PMS_P2;Temp;Humidity;BMP_temperature;BMP_pressure;BME280_temperature;BME280_humidity;BME280_pressure;Samples;Min_cycle;Max_cycle;Signal;HPM_P1;HPM_P2
2023/10/07 00:01:54;;;;;;;7.63;4.80;;;14.20;99.90;;;;;;4955107;28;20171;-69
2023/10/07 00:04:19;;;;;;;8.03;4.83;;;14.20;99.90;;;;;;4954997;28;20194;-71
2023/10/07 00:06:45;;;;;;;5.37;4.87;;;14.30;99.90;;;;;;4955495;28;20174;-70
2023/10/07 00:09:16;;;;;;;11.03;5.27;;;14.30;99.90;;;;;;4973809;28;20189;-70
2023/10/07 00:11:46;;;;;;;8.10;5.17;;;14.30;99.90;;;;;;4974586;28;20194;-73
2023/10/07 00:14:12;;;;;;;6.00;5.40;;;14.30;99.90;;;;;;4974080;28;20178;-71
2023/10/07 00:16:38;;;;;;;9.40;5.17;;;14.30;99.90;;;;;;4974325;28;20260;-71
2023/10/07 00:19:03;;;;;;;6.23;5.03;;;14.30;99.90;;;;;;4974142;28;20209;-71
2023/10/07 00:21:52;;;;;;;6.23;4.67;;;14.40;99.90;;;;;;4973503;28;20512;-71
2023/10/07 00:24:16;;;;;;;9.57;5.50;;;14.40;99.90;;;;;;4973970;28;20182;-71
2023/10/07 00:26:43;;;;;;;7.73;4.77;;;14.40;99.90;;;;;;4974050;28;20222;-71
2023/10/07 00:29:12;;;;;;;7.90;5.17;;;14.40;99.90;;;;;;4974059;28;20188;-69
2023/10/07 00:31:40;;;;;;;10.60;5.27;;;14.40;99.90;;;;;;4972364;28;20182;-70
2023/10/07 00:34:14;;;;;;;11.53;5.60;;;14.40;99.90;;;;;;4973813;28;20268;-69
2023/10/07 00:39:09;;;;;;;9.43;5.63;;;14.30;99.90;;;;;;4973845;28;20259;-69
2023/10/07 00:41:50;;;;;;;11.23;5.40;;;14.30;99.90;;;;;;4973771;28;20212;-70
2023/10/07 00:44:37;;;;;;;8.00;5.00;;;14.30;99.90;;;;;;4973802;28;20182;-70
2023/10/07 00:49:40;;;;;;;7.43;5.13;;;14.20;99.90;;;;;;4973458;28;20237;-70
2023/10/07 00:52:14;;;;;;;8.00;5.70;;;14.20;99.90;;;;;;4973584;28;20205;-70
2023/10/07 00:59:51;;;;;;;9.93;6.37;;;14.20;99.90;;;;;;4973409;28;20681;-71
2023/10/07 01:02:29;;;;;;;7.27;5.33;;;14.10;99.90;;;;;;4973239;28;20173;-70
2023/10/07 01:05:12;;;;;;;7.90;5.20;;;14.10;99.90;;;;;;4973468;28;20589;-70
2023/10/07 01:07:40;;;;;;;10.87;5.37;;;14.10;99.90;;;;;;4973435;28;20220;-70
2023/10/07 01:12:38;;;;;;;12.77;5.20;;;14.10;99.90;;;;;;4973094;28;20550;-69
2023/10/07 01:15:12;;;;;;;7.83;4.50;;;14.10;99.90;;;;;;4973229;28;20197;-70
2023/10/07 01:17:41;;;;;;;9.10;5.33;;;14.10;99.90;;;;;;4972915;28;20244;-70
2023/10/07 01:20:08;;;;;;;7.30;4.53;;;14.00;99.90;;;;;;4972628;28;20305;-70
2023/10/07 01:22:37;;;;;;;8.60;5.43;;;14.00;99.90;;;;;;4971634;28;20531;-69
2023/10/07 01:25:08;;;;;;;9.40;5.70;;;14.00;99.90;;;;;;4973238;28;20177;-70
2023/10/07 01:27:41;;;;;;;8.77;6.10;;;14.00;99.90;;;;;;4972730;28;20178;-70
2023/10/07 01:30:15;;;;;;;10.40;5.43;;;14.00;99.90;;;;;;4972860;28;20631;-72
2023/10/07 01:32:50;;;;;;;9.93;5.77;;;14.00;99.90;;;;;;4972890;28;20189;-70
2023/10/07 01:35:25;;;;;;;9.57;5.67;;;14.00;99.90;;;;;;4973111;28;20177;-70
2023/10/07 01:37:59;;;;;;;8.87;6.00;;;14.00;99.90;;;;;;4972791;28;20594;-70
2023/10/07 01:41:14;;;;;;;9.43;5.97;;;14.00;99.90;;;;;;4972834;28;20208;-70
2023/10/07 01:43:12;;;;;;;7.73;5.90;;;14.00;99.90;;;;;;4968661;28;20669;-70
2023/10/07 01:45:39;;;;;;;10.53;5.80;;;14.00;99.90;;;;;;4972376;28;20178;-71
2023/10/07 01:48:09;;;;;;;8.90;5.23;;;14.10;99.90;;;;;;4972868;28;20679;-71
2023/10/07 01:50:40;;;;;;;7.00;5.27;;;14.10;99.90;;;;;;4972810;28;20194;-70
2023/10/07 01:53:11;;;;;;;6.40;5.63;;;14.10;99.90;;;;;;4972417;28;20277;-70
2023/10/07 01:55:43;;;;;;;9.77;5.80;;;14.10;99.90;;;;;;4972651;28;20174;-69
2023/10/07 01:58:13;;;;;;;9.00;5.57;;;14.20;99.90;;;;;;4972372;28;20181;-70
2023/10/07 02:00:48;;;;;;;8.73;5.97;;;14.20;99.90;;;;;;4972394;28;20217;-70
2023/10/07 02:03:23;;;;;;;10.17;5.50;;;14.20;99.90;;;;;;4972501;28;20173;-70
2023/10/07 02:05:49;;;;;;;9.93;4.73;;;14.20;99.90;;;;;;4975193;28;20175;-70
2023/10/07 02:08:22;;;;;;;8.23;5.50;;;14.20;99.90;;;;;;4977773;28;20183;-69
2023/10/07 02:10:57;;;;;;;9.03;5.40;;;14.10;99.90;;;;;;4978881;28;20296;-70
2023/10/07 02:13:23;;;;;;;9.20;5.37;;;14.20;99.90;;;;;;4978531;28;20552;-69
2023/10/07 02:15:51;;;;;;;6.03;5.27;;;14.20;99.90;;;;;;4978836;28;20181;-70
2023/10/07 02:18:17;;;;;;;11.60;5.80;;;14.10;99.90;;;;;;4979081;28;20173;-70
2023/10/07 02:20:52;;;;;;;8.00;6.03;;;14.20;99.90;;;;;;4978240;28;20291;-69
2023/10/07 02:23:40;;;;;;;8.97;5.53;;;14.20;99.90;;;;;;4978801;28;20200;-69
2023/10/07 02:26:21;;;;;;;7.63;5.43;;;14.20;99.90;;;;;;4978633;28;20183;-69
2023/10/07 02:28:52;;;;;;;9.73;6.00;;;14.20;99.90;;;;;;4979017;28;20180;-70
2023/10/07 02:31:19;;;;;;;9.83;6.03;;;14.20;99.90;;;;;;4978915;28;20564;-70
2023/10/07 02:33:52;;;;;;;8.80;6.10;;;14.20;99.90;;;;;;4978662;28;20178;-70
2023/10/07 02:36:28;;;;;;;10.57;5.67;;;14.20;99.90;;;;;;4978835;28;20584;-70
2023/10/07 02:39:23;;;;;;;8.93;5.97;;;14.30;99.90;;;;;;4977534;28;20530;-70
2023/10/07 02:41:46;;;;;;;7.47;5.60;;;14.30;99.90;;;;;;4978236;28;20194;-70
2023/10/07 02:44:16;;;;;;;12.33;6.07;;;14.20;99.90;;;;;;4978676;28;20260;-70
2023/10/07 02:46:42;;;;;;;13.57;6.13;;;14.20;99.90;;;;;;4977490;28;20193;-71
2023/10/07 02:49:10;;;;;;;14.27;6.37;;;14.20;99.90;;;;;;4978447;28;20637;-70
2023/10/07 02:51:44;;;;;;;15.13;6.17;;;14.20;99.90;;;;;;4978666;28;20232;-72
2023/10/07 02:54:18;;;;;;;8.07;6.13;;;14.20;99.90;;;;;;4978633;28;20183;-71
2023/10/07 02:56:56;;;;;;;8.20;7.00;;;14.20;99.90;;;;;;4979102;28;20665;-70
2023/10/07 02:59:35;;;;;;;8.23;6.70;;;14.20;99.90;;;;;;4978354;28;20704;-70
2023/10/07 03:02:12;;;;;;;10.00;6.57;;;14.20;99.90;;;;;;4978551;28;20252;-71
2023/10/07 03:04:41;;;;;;;6.93;5.80;;;14.20;99.90;;;;;;4978608;28;20209;-71
2023/10/07 03:07:16;;;;;;;11.87;6.73;;;14.30;99.90;;;;;;4978577;28;20180;-70
2023/10/07 03:09:43;;;;;;;12.17;6.60;;;14.30;99.90;;;;;;4978228;28;20209;-70
2023/10/07 03:12:27;;;;;;;17.47;6.77;;;14.30;99.90;;;;;;4978576;28;20188;-70
2023/10/07 03:14:55;;;;;;;15.37;7.17;;;14.40;99.90;;;;;;4978557;28;20181;-70
2023/10/07 03:17:21;;;;;;;13.23;7.43;;;14.40;99.90;;;;;;4975757;28;20288;-70
2023/10/07 03:20:46;;;;;;;9.30;6.23;;;14.40;99.90;;;;;;4974765;28;20215;-70
2023/10/07 03:22:43;;;;;;;11.27;6.93;;;14.40;99.90;;;;;;4971252;28;20196;-69
2023/10/07 03:25:08;;;;;;;8.93;6.23;;;14.50;99.90;;;;;;4973943;28;20184;-69
2023/10/07 03:27:39;;;;;;;11.53;6.70;;;14.50;99.90;;;;;;4975521;28;20531;-70
2023/10/07 03:30:18;;;;;;;15.93;7.90;;;14.50;99.90;;;;;;4975225;28;20244;-71
2023/10/07 03:32:57;;;;;;;11.33;7.03;;;14.50;99.90;;;;;;4973801;28;20182;-71
2023/10/07 03:36:07;;;;;;;11.77;6.70;;;14.60;99.90;;;;;;4974933;28;20656;-69
2023/10/07 03:38:27;;;;;;;14.23;6.73;;;14.60;99.90;;;;;;4974829;28;20185;-70
2023/10/07 03:40:56;;;;;;;7.83;7.10;;;14.60;99.90;;;;;;4974909;28;20215;-70
2023/10/07 03:43:25;;;;;;;15.07;8.13;;;14.60;99.90;;;;;;4974833;28;20209;-70
2023/10/07 03:45:55;;;;;;;15.27;7.77;;;14.70;99.90;;;;;;4973498;28;20198;-70
2023/10/07 03:48:24;;;;;;;11.30;7.60;;;14.70;99.90;;;;;;4974951;28;20244;-70
2023/10/07 03:51:04;;;;;;;11.93;7.87;;;14.80;99.90;;;;;;4974722;28;20251;-70
2023/10/07 03:53:44;;;;;;;12.63;7.43;;;14.80;99.90;;;;;;4974706;28;20268;-71
2023/10/07 03:56:13;;;;;;;14.97;8.37;;;14.80;99.90;;;;;;4974758;28;20184;-70
2023/10/07 03:58:43;;;;;;;10.23;7.60;;;14.90;99.90;;;;;;4974751;28;20178;-70
2023/10/07 04:01:16;;;;;;;11.60;7.60;;;14.90;99.90;;;;;;4974200;28;20209;-69
2023/10/07 04:03:49;;;;;;;11.70;7.40;;;14.90;99.90;;;;;;4974249;28;20173;-70
2023/10/07 04:06:20;;;;;;;10.53;6.73;;;15.00;99.90;;;;;;4974644;28;20173;-70
2023/10/07 04:08:52;;;;;;;15.37;7.57;;;15.00;99.90;;;;;;4974757;28;20669;-70
2023/10/07 04:11:19;;;;;;;13.03;6.77;;;15.00;99.90;;;;;;4973297;28;20232;-69
2023/10/07 04:13:46;;;;;;;12.77;7.40;;;15.00;99.90;;;;;;4974382;28;20184;-71
2023/10/07 04:16:24;;;;;;;10.50;7.00;;;15.00;99.90;;;;;;4974446;28;20657;-71
2023/10/07 04:19:29;;;;;;;7.23;6.53;;;15.10;99.90;;;;;;4973203;28;20635;-70
2023/10/07 04:21:54;;;;;;;9.00;6.67;;;15.10;99.90;;;;;;4973999;28;20689;-70
2023/10/07 04:24:21;;;;;;;11.43;6.47;;;15.10;99.90;;;;;;4973935;28;20178;-71
2023/10/07 04:26:54;;;;;;;13.37;6.70;;;15.20;99.90;;;;;;4974259;28;20260;-70
2023/10/07 04:29:21;;;;;;;12.47;7.37;;;15.20;99.90;;;;;;4954670;28;20186;-70
2023/10/07 04:31:51;;;;;;;11.93;7.00;;;15.20;99.90;;;;;;4956359;28;20206;-70
2023/10/07 04:34:23;;;;;;;11.23;7.03;;;15.30;99.90;;;;;;4973700;28;20235;-70
2023/10/07 04:40:33;;;;;;;12.17;6.90;;;15.30;99.90;;;;;;4974111;28;20681;-70
2023/10/07 04:42:36;;;;;;;10.37;6.43;;;15.40;99.90;;;;;;4973432;28;20181;-72
2023/10/07 04:47:57;;;;;;;14.73;7.23;;;15.30;99.90;;;;;;4973691;28;20189;-70
2023/10/07 04:51:02;;;;;;;9.27;6.27;;;15.30;99.90;;;;;;4974039;28;20197;-70
2023/10/07 04:53:16;;;;;;;13.83;6.97;;;15.30;99.90;;;;;;4973205;28;20173;-70
2023/10/07 04:55:41;;;;;;;10.37;6.57;;;15.30;99.90;;;;;;4973630;28;20173;-71
2023/10/07 04:58:12;;;;;;;7.93;5.73;;;15.30;99.90;;;;;;4973597;28;20236;-71
2023/10/07 05:00:43;;;;;;;9.97;6.53;;;15.40;99.90;;;;;;4973377;28;20763;-71
2023/10/07 05:03:14;;;;;;;12.47;6.73;;;15.40;99.90;;;;;;4972994;28;20204;-71
2023/10/07 05:05:43;;;;;;;8.60;6.40;;;15.40;99.90;;;;;;4973598;28;20193;-71
2023/10/07 05:08:22;;;;;;;8.23;6.30;;;15.50;99.90;;;;;;4973439;28;20177;-71
2023/10/07 05:10:54;;;;;;;8.70;5.73;;;15.50;99.90;;;;;;4973477;28;20582;-70
2023/10/07 05:13:21;;;;;;;10.07;6.73;;;15.50;99.90;;;;;;4973350;28;20433;-70
2023/10/07 05:15:47;;;;;;;13.97;6.73;;;15.50;99.90;;;;;;4973119;28;20575;-71
2023/10/07 05:18:16;;;;;;;12.33;7.00;;;15.60;99.90;;;;;;4973277;28;20228;-71
2023/10/07 05:20:46;;;;;;;11.20;6.70;;;15.60;99.90;;;;;;4972098;28;20264;-71
2023/10/07 05:23:14;;;;;;;10.67;6.80;;;15.60;99.90;;;;;;4973098;28;20257;-71
2023/10/07 05:25:52;;;;;;;9.13;6.60;;;15.70;99.90;;;;;;4973233;28;20609;-71
2023/10/07 05:28:23;;;;;;;12.27;6.53;;;15.70;99.90;;;;;;4971728;28;20169;-70
2023/10/07 05:30:50;;;;;;;13.23;6.90;;;15.60;99.90;;;;;;4971911;28;20208;-71
2023/10/07 05:33:26;;;;;;;11.67;6.33;;;15.60;99.90;;;;;;4972817;28;20177;-71
2023/10/07 05:35:58;;;;;;;9.47;6.47;;;15.60;99.90;;;;;;4972744;28;20180;-71
2023/10/07 05:38:25;;;;;;;8.70;5.97;;;15.60;99.90;;;;;;4973131;28;20181;-71
2023/10/07 05:40:50;;;;;;;8.80;5.87;;;15.60;99.90;;;;;;4970842;28;20205;-71
2023/10/07 05:43:16;;;;;;;12.30;6.30;;;15.60;99.90;;;;;;4972753;28;20174;-71
2023/10/07 05:45:42;;;;;;;9.60;5.90;;;15.60;99.90;;;;;;4972930;28;20503;-71
2023/10/07 05:48:08;;;;;;;11.30;6.13;;;15.60;99.90;;;;;;4972846;28;20217;-71
2023/10/07 05:50:34;;;;;;;8.90;6.23;;;15.60;99.90;;;;;;4972897;28;20198;-70
2023/10/07 05:53:02;;;;;;;11.87;5.63;;;15.60;99.90;;;;;;4972545;28;20212;-71
2023/10/07 05:55:29;;;;;;;8.40;5.87;;;15.60;99.90;;;;;;4972407;28;20181;-71
2023/10/07 05:57:55;;;;;;;8.40;6.20;;;15.60;99.90;;;;;;4972518;28;20204;-71
2023/10/07 06:00:24;;;;;;;11.00;5.60;;;15.60;99.90;;;;;;4972439;28;20216;-70
2023/10/07 06:02:51;;;;;;;10.77;5.87;;;15.60;99.90;;;;;;4972447;28;20177;-71
2023/10/07 06:05:19;;;;;;;7.87;5.57;;;15.60;99.90;;;;;;4972722;28;20777;-71
2023/10/07 06:07:44;;;;;;;10.33;6.23;;;15.60;99.90;;;;;;4972522;28;20169;-70
2023/10/07 06:10:10;;;;;;;11.87;6.33;;;15.70;99.90;;;;;;4970704;28;20323;-70
2023/10/07 06:12:36;;;;;;;8.90;6.47;;;15.70;99.90;;;;;;4972289;28;20184;-71
2023/10/07 06:15:08;;;;;;;10.97;5.70;;;15.80;99.90;;;;;;4972255;28;20174;-71
2023/10/07 06:17:36;;;;;;;9.00;5.70;;;15.80;99.90;;;;;;4972515;28;20177;-70
2023/10/07 06:20:26;;;;;;;8.90;5.43;;;15.90;99.90;;;;;;4970727;28;20599;-70
2023/10/07 06:22:50;;;;;;;8.33;5.70;;;15.90;99.90;;;;;;4971838;28;20177;-70
2023/10/07 06:25:16;;;;;;;8.07;5.77;;;16.00;99.90;;;;;;4972764;28;20658;-70
2023/10/07 06:27:43;;;;;;;10.97;5.83;;;16.00;99.90;;;;;;4972264;28;20169;-71
2023/10/07 06:30:11;;;;;;;10.97;5.10;;;16.10;99.90;;;;;;4972124;28;20197;-71
2023/10/07 06:32:49;;;;;;;7.03;5.40;;;16.10;99.90;;;;;;4972023;28;20657;-71
2023/10/07 06:35:21;;;;;;;8.77;6.23;;;16.20;99.90;;;;;;4972071;28;20173;-71
2023/10/07 06:37:46;;;;;;;12.57;5.30;;;16.10;99.90;;;;;;4952708;28;20706;-71
2023/10/07 06:40:31;;;;;;;8.60;5.33;;;16.10;99.90;;;;;;4952681;28;20284;-70
2023/10/07 06:43:01;;;;;;;9.87;5.67;;;16.10;99.90;;;;;;4951374;28;20182;-70
2023/10/07 06:45:38;;;;;;;8.67;6.17;;;16.10;99.90;;;;;;4952884;28;20171;-70
2023/10/07 06:48:09;;;;;;;9.70;6.17;;;16.10;99.90;;;;;;4952494;28;20182;-70
2023/10/07 06:50:35;;;;;;;11.97;5.57;;;16.10;99.90;;;;;;4962210;28;20193;-70
2023/10/07 06:53:02;;;;;;;10.13;5.53;;;16.20;99.90;;;;;;4973721;28;20720;-72
2023/10/07 06:55:33;;;;;;;11.93;5.83;;;16.30;99.90;;;;;;4975795;28;20166;-71
2023/10/07 06:57:59;;;;;;;7.97;5.60;;;16.30;99.90;;;;;;4975559;28;20225;-71
2023/10/07 07:00:27;;;;;;;9.17;5.60;;;16.30;99.90;;;;;;4975417;28;20213;-72
2023/10/07 07:02:59;;;;;;;11.33;5.93;;;16.40;99.90;;;;;;4975322;28;20228;-71
2023/10/07 07:05:26;;;;;;;14.30;6.03;;;16.50;99.90;;;;;;4974814;28;20181;-70
2023/10/07 07:07:54;;;;;;;8.50;5.57;;;16.60;99.90;;;;;;4975393;28;20713;-71
2023/10/07 07:10:27;;;;;;;7.27;5.37;;;16.70;99.90;;;;;;4975415;28;20233;-71
2023/10/07 07:13:02;;;;;;;9.40;5.70;;;16.80;99.90;;;;;;4975212;28;20173;-71
2023/10/07 07:15:36;;;;;;;9.00;5.40;;;16.90;99.90;;;;;;4975393;28;20227;-71
2023/10/07 07:18:25;;;;;;;13.30;5.80;;;17.00;99.90;;;;;;4974746;28;20200;-71
2023/10/07 07:20:48;;;;;;;7.03;5.17;;;17.00;99.90;;;;;;4974818;28;20581;-71
2023/10/07 07:23:16;;;;;;;6.53;4.77;;;17.30;99.90;;;;;;4974882;28;20177;-71
2023/10/07 07:25:50;;;;;;;8.03;5.10;;;17.40;99.90;;;;;;4975138;28;20178;-71
2023/10/07 07:28:17;;;;;;;8.77;4.70;;;17.60;99.90;;;;;;4975170;28;20176;-71
2023/10/07 07:30:44;;;;;;;8.30;4.27;;;17.80;99.90;;;;;;4974442;28;20511;-71
2023/10/07 07:33:12;;;;;;;8.70;5.53;;;18.00;99.90;;;;;;4974575;28;20185;-71
2023/10/07 07:35:51;;;;;;;8.10;4.33;;;18.10;99.90;;;;;;4974953;28;20177;-71
2023/10/07 07:40:49;;;;;;;8.90;4.87;;;18.20;99.90;;;;;;4974689;28;20206;-71
2023/10/07 07:43:15;;;;;;;9.40;4.80;;;18.10;99.90;;;;;;4973870;28;20173;-71
2023/10/07 07:45:41;;;;;;;7.37;4.63;;;18.10;99.90;;;;;;4974883;28;20605;-71
2023/10/07 07:48:07;;;;;;;10.17;4.70;;;18.10;99.90;;;;;;4974613;28;20233;-71
2023/10/07 07:50:35;;;;;;;7.53;4.90;;;18.10;99.90;;;;;;4973303;28;20570;-71
2023/10/07 07:53:07;;;;;;;8.67;4.53;;;18.10;99.90;;;;;;4974515;28;20176;-71
2023/10/07 07:55:36;;;;;;;9.53;5.30;;;18.10;99.90;;;;;;4974586;28;20209;-71
2023/10/07 07:58:03;;;;;;;13.87;5.20;;;18.10;99.90;;;;;;4974251;28;20174;-70
2023/10/07 08:00:31;;;;;;;9.07;5.10;;;18.10;99.90;;;;;;4974221;28;20209;-70
2023/10/07 08:03:00;;;;;;;6.77;4.40;;;18.10;99.90;;;;;;4973214;28;20225;-70
2023/10/07 08:05:28;;;;;;;6.73;5.07;;;18.10;99.90;;;;;;4974316;28;20185;-70
2023/10/07 08:07:55;;;;;;;7.60;4.60;;;18.10;99.90;;;;;;4972893;28;20177;-71
2023/10/07 08:10:22;;;;;;;6.03;4.80;;;18.10;99.90;;;;;;4971960;28;20226;-72
2023/10/07 08:12:50;;;;;;;7.37;4.10;;;18.10;99.90;;;;;;4973166;28;20265;-73
2023/10/07 08:15:22;;;;;;;6.90;4.20;;;18.10;99.90;;;;;;4973384;28;20592;-70
2023/10/07 08:17:51;;;;;;;6.67;4.57;;;18.10;99.90;;;;;;4973135;28;20180;-71
2023/10/07 08:20:29;;;;;;;9.07;4.70;;;18.10;99.90;;;;;;4973089;28;20284;-70
2023/10/07 08:23:06;;;;;;;8.63;4.97;;;18.10;99.90;;;;;;4973886;28;20162;-71
2023/10/07 08:25:45;;;;;;;6.70;4.80;;;18.00;99.90;;;;;;4973720;28;20197;-70
2023/10/07 08:28:38;;;;;;;9.03;5.00;;;17.90;99.90;;;;;;4973186;28;20669;-70
2023/10/07 08:31:13;;;;;;;8.17;4.27;;;18.00;99.90;;;;;;4973774;28;20240;-70
2023/10/07 08:33:38;;;;;;;6.60;4.97;;;18.00;99.90;;;;;;4973271;28;20213;-71
2023/10/07 08:36:07;;;;;;;11.00;5.37;;;18.20;99.90;;;;;;4973655;28;20212;-70
2023/10/07 08:38:43;;;;;;;6.33;4.20;;;18.40;99.90;;;;;;4973785;28;20642;-70
2023/10/07 08:41:10;;;;;;;5.17;4.43;;;18.60;99.90;;;;;;4973122;28;20207;-71
2023/10/07 08:43:46;;;;;;;9.17;4.67;;;18.90;99.90;;;;;;4973451;28;20197;-70
2023/10/07 08:46:16;;;;;;;6.97;4.07;;;19.30;99.90;;;;;;4973210;28;20247;-70
2023/10/07 08:48:59;;;;;;;7.07;4.33;;;19.60;99.90;;;;;;4973675;28;20248;-71
2023/10/07 08:51:27;;;;;;;8.20;4.57;;;19.90;99.90;;;;;;4973353;28;20272;-70
2023/10/07 08:53:57;;;;;;;7.63;4.80;;;20.20;99.90;;;;;;4973350;28;20181;-70
2023/10/07 08:56:25;;;;;;;6.55;5.00;;;20.50;99.90;;;;;;4972897;28;20192;-71
2023/10/07 08:58:51;;;;;;;6.88;3.95;;;20.50;99.90;;;;;;4973387;28;20197;-70
2023/10/07 09:01:17;;;;;;;7.28;4.38;;;20.50;99.90;;;;;;4973107;28;20205;-70
2023/10/07 09:03:48;;;;;;;7.10;4.68;;;20.50;99.90;;;;;;4973343;28;20177;-71
2023/10/07 09:06:14;;;;;;;6.70;4.55;;;20.30;99.90;;;;;;4972970;28;20174;-71
2023/10/07 09:08:41;;;;;;;7.77;4.70;;;20.20;99.90;;;;;;4973094;28;20235;-70
2023/10/07 09:11:08;;;;;;;7.03;4.50;;;20.20;99.90;;;;;;4972978;28;20608;-70
2023/10/07 09:13:34;;;;;;;12.40;4.77;;;20.30;99.90;;;;;;4972840;28;20173;-70
2023/10/07 09:16:03;;;;;;;5.30;4.70;;;20.40;99.90;;;;;;4972155;28;20551;-71
2023/10/07 09:18:37;;;;;;;6.18;4.75;;;20.70;99.90;;;;;;4972637;28;20708;-71
2023/10/07 09:21:09;;;;;;;11.13;4.25;;;20.70;99.90;;;;;;4972965;28;20732;-70
2023/10/07 09:23:46;;;;;;;7.18;4.80;;;20.90;99.90;;;;;;4972736;28;20170;-72
2023/10/07 09:26:21;;;;;;;6.22;4.50;;;21.20;99.90;;;;;;4972095;28;20192;-71
2023/10/07 09:28:51;;;;;;;6.28;4.78;;;21.40;99.90;;;;;;4973310;28;20248;-72
2023/10/07 09:31:19;;;;;;;6.25;4.32;;;21.70;99.90;;;;;;4972829;28;20193;-71
2023/10/07 09:33:49;;;;;;;7.50;4.55;;;22.00;99.90;;;;;;4971269;28;20188;-71
2023/10/07 09:36:33;;;;;;;7.68;4.45;;;22.20;99.90;;;;;;4972710;28;20169;-71
2023/10/07 09:41:44;;;;;;;5.75;4.13;;;22.70;99.90;;;;;;4973054;28;20238;-71
2023/10/07 09:44:28;;;;;;;10.15;4.50;;;23.10;99.90;;;;;;4972524;28;20181;-74
2023/10/07 09:46:55;;;;;;;4.95;3.60;;;22.90;99.90;;;;;;4972735;28;20189;-71
2023/10/07 09:49:23;;;;;;;6.35;4.57;;;22.60;99.90;;;;;;4972700;28;20243;-72
2023/10/07 09:51:50;;;;;;;8.27;4.13;;;22.40;99.90;;;;;;4971468;28;20556;-71
2023/10/07 09:54:37;;;;;;;6.50;3.92;;;22.20;99.90;;;;;;4972852;28;20550;-71
2023/10/07 09:57:19;;;;;;;7.88;4.40;;;22.00;99.90;;;;;;4972903;28;20200;-71
2023/10/07 09:59:56;;;;;;;8.35;3.90;;;22.20;99.90;;;;;;4972365;28;20212;-71
2023/10/07 10:02:43;;;;;;;7.60;4.25;;;22.40;99.90;;;;;;4953058;28;20185;-72
2023/10/07 10:05:28;;;;;;;10.45;4.22;;;22.50;99.90;;;;;;4952014;28;20184;-71
2023/10/07 10:08:11;;;;;;;5.85;4.03;;;22.60;99.90;;;;;;4953296;28;20369;-72
2023/10/07 10:10:44;;;;;;;4.88;3.38;;;22.50;99.90;;;;;;4951892;28;20761;-70
2023/10/07 10:13:28;;;;;;;9.77;4.20;;;22.40;99.90;;;;;;4953249;28;20233;-71
2023/10/07 10:16:00;;;;;;;5.90;4.32;;;22.20;99.90;;;;;;4964003;28;20543;-71
2023/10/07 10:18:38;;;;;;;10.00;4.30;;;22.00;99.90;;;;;;4972444;28;20177;-70
2023/10/07 10:21:09;;;;;;;5.35;4.63;;;21.90;99.90;;;;;;4970729;28;20220;-71
2023/10/07 10:23:37;;;;;;;7.38;4.82;;;21.80;99.90;;;;;;4970679;28;20169;-71
2023/10/07 10:26:27;;;;;;;7.28;4.00;;;21.70;99.90;;;;;;4971636;28;20205;-71
2023/10/07 10:29:03;;;;;;;5.40;4.22;;;21.80;99.90;;;;;;4975951;28;20224;-71
2023/10/07 10:31:34;;;;;;;5.38;4.05;;;21.80;99.90;;;;;;4976163;28;20197;-71
2023/10/07 10:34:08;;;;;;;7.63;4.60;;;22.00;99.90;;;;;;4974352;28;20265;-71
2023/10/07 10:36:48;;;;;;;5.05;3.60;;;22.10;99.90;;;;;;4976123;28;20188;-73
2023/10/07 10:39:19;;;;;;;6.93;3.80;;;22.10;99.90;;;;;;4975773;28;20177;-72
2023/10/07 10:41:45;;;;;;;8.55;3.90;;;22.10;99.90;;;;;;4974661;28;20653;-71
2023/10/07 10:44:11;;;;;;;6.53;4.20;;;22.20;99.90;;;;;;4975630;28;20184;-71
2023/10/07 10:46:44;;;;;;;6.53;4.70;;;22.10;99.90;;;;;;4975852;28;20558;-71
2023/10/07 10:49:18;;;;;;;6.60;3.70;;;22.10;99.90;;;;;;4975507;28;20205;-70
2023/10/07 10:51:48;;;;;;;4.47;3.83;;;22.30;99.90;;;;;;4975715;28;20166;-71
2023/10/07 10:54:15;;;;;;;6.03;3.80;;;22.40;99.90;;;;;;4975165;28;21147;-71
2023/10/07 10:56:55;;;;;;;5.03;3.38;;;22.70;99.90;;;;;;4975747;28;20161;-71
2023/10/07 10:59:34;;;;;;;10.18;3.70;;;22.80;99.90;;;;;;4975425;28;20637;-71
2023/10/07 11:02:01;;;;;;;5.45;3.75;;;23.00;99.90;;;;;;4975521;28;20166;-70
2023/10/07 11:04:28;;;;;;;6.63;3.30;;;23.20;99.90;;;;;;4975226;28;20601;-72
2023/10/07 11:06:55;;;;;;;4.50;3.30;;;23.30;99.90;;;;;;4975117;28;20638;-72
2023/10/07 11:09:34;;;;;;;4.82;3.50;;;23.40;99.90;;;;;;4975210;28;20204;-72
2023/10/07 11:12:08;;;;;;;5.25;3.40;;;23.40;99.90;;;;;;4975381;28;20249;-72
2023/10/07 11:14:38;;;;;;;6.32;3.22;;;23.10;99.90;;;;;;4975261;28;20708;-71
2023/10/07 11:17:04;;;;;;;5.35;3.80;;;23.00;99.90;;;;;;4975458;28;20184;-73
2023/10/07 11:19:30;;;;;;;6.15;3.50;;;23.00;99.90;;;;;;4974954;28;20216;-71
2023/10/07 11:21:57;;;;;;;5.63;3.30;;;22.80;99.90;;;;;;4974862;28;20173;-72
2023/10/07 11:24:27;;;;;;;5.18;4.30;;;22.80;99.90;;;;;;4974861;28;20597;-72
2023/10/07 11:26:59;;;;;;;5.50;3.50;;;22.80;99.90;;;;;;4973930;28;20186;-73
2023/10/07 11:29:32;;;;;;;4.13;2.70;;;23.00;99.90;;;;;;4974938;28;20193;-72
2023/10/07 11:31:59;;;;;;;3.92;3.17;;;23.10;99.90;;;;;;4975388;28;20722;-72
2023/10/07 11:34:37;;;;;;;5.85;3.05;;;23.20;99.90;;;;;;4974626;28;20219;-71
2023/10/07 11:37:10;;;;;;;5.32;3.30;;;23.20;99.90;;;;;;4974608;28;20268;-73
2023/10/07 11:39:43;;;;;;;3.72;3.40;;;23.10;99.90;;;;;;4973782;28;20220;-72
2023/10/07 11:42:11;;;;;;;9.68;3.70;;;22.90;99.90;;;;;;4974654;28;20220;-72
2023/10/07 11:44:38;;;;;;;4.28;3.10;;;22.90;99.90;;;;;;4974655;28;20174;-72
2023/10/07 11:47:04;;;;;;;5.85;3.50;;;23.00;99.90;;;;;;4974984;28;20196;-72
2023/10/07 11:49:31;;;;;;;5.88;3.03;;;22.90;99.90;;;;;;4973147;28;20202;-72
2023/10/07 11:51:57;;;;;;;4.35;3.55;;;22.90;99.90;;;;;;4974252;28;20181;-72
2023/10/07 11:54:24;;;;;;;5.03;3.78;;;23.10;99.90;;;;;;4974210;28;20175;-73
2023/10/07 11:56:50;;;;;;;5.13;3.60;;;23.20;99.90;;;;;;4974638;28;20169;-72
2023/10/07 11:59:15;;;;;;;8.73;3.83;;;23.30;99.90;;;;;;4974301;28;20549;-72
2023/10/07 12:01:41;;;;;;;7.28;3.85;;;23.30;99.90;;;;;;4973134;28;20272;-71
2023/10/07 12:04:08;;;;;;;6.47;3.38;;;23.20;99.90;;;;;;4972941;28;20173;-71
2023/10/07 12:06:34;;;;;;;3.85;3.33;;;23.30;99.90;;;;;;4973032;28;20261;-72
2023/10/07 12:09:06;;;;;;;5.22;3.20;;;23.40;99.90;;;;;;4974442;28;20177;-73
2023/10/07 12:11:32;;;;;;;9.13;3.40;;;23.40;99.90;;;;;;4974139;28;20675;-72
2023/10/07 12:13:58;;;;;;;7.13;3.47;;;23.50;99.90;;;;;;4974442;28;20252;-73
2023/10/07 12:16:23;;;;;;;7.03;3.30;;;23.50;99.90;;;;;;4973932;28;20256;-73
2023/10/07 12:18:49;;;;;;;6.03;3.83;;;23.50;99.90;;;;;;4973601;28;20657;-74
2023/10/07 12:21:14;;;;;;;4.25;3.30;;;23.40;99.90;;;;;;4973959;28;20268;-73
2023/10/07 12:23:44;;;;;;;6.85;3.03;;;23.50;99.90;;;;;;4973489;28;20181;-72
2023/10/07 12:26:13;;;;;;;6.55;3.30;;;23.50;99.90;;;;;;4973872;28;20242;-72
2023/10/07 12:28:39;;;;;;;6.47;3.83;;;23.70;99.90;;;;;;4972710;28;20170;-73
2023/10/07 12:31:12;;;;;;;6.88;3.58;;;23.70;99.90;;;;;;4974100;28;20566;-72
2023/10/07 12:33:39;;;;;;;4.18;2.88;;;23.70;99.90;;;;;;4973536;28;20173;-72
2023/10/07 12:36:12;;;;;;;6.03;3.80;;;23.60;99.90;;;;;;4973675;28;20261;-73
2023/10/07 12:38:38;;;;;;;4.78;3.55;;;23.30;99.90;;;;;;4973486;28;20177;-72
2023/10/07 12:41:07;;;;;;;7.90;3.30;;;23.00;99.90;;;;;;4973774;28;20212;-72
2023/10/07 12:43:39;;;;;;;4.57;3.78;;;23.00;99.90;;;;;;4973132;28;20526;-73
2023/10/07 12:46:11;;;;;;;4.55;3.15;;;23.30;99.90;;;;;;4973458;28;20190;-72
2023/10/07 12:48:37;;;;;;;4.20;3.15;;;23.50;99.90;;;;;;4973780;28;20545;-73
2023/10/07 12:51:06;;;;;;;6.20;3.75;;;23.70;99.90;;;;;;4973274;28;20221;-73
2023/10/07 12:53:33;;;;;;;3.63;3.33;;;23.90;99.90;;;;;;4973120;28;20208;-73
2023/10/07 12:55:58;;;;;;;8.82;3.78;;;23.90;99.90;;;;;;4973342;28;20597;-72
2023/10/07 12:58:27;;;;;;;7.78;4.38;;;24.00;99.90;;;;;;4973134;28;20174;-72
2023/10/07 13:00:53;;;;;;;5.65;3.63;;;24.10;99.90;;;;;;4973387;28;20213;-72
2023/10/07 13:03:19;;;;;;;7.10;3.42;;;24.20;99.90;;;;;;4972879;28;20260;-73
2023/10/07 13:05:45;;;;;;;6.15;3.65;;;24.10;99.90;;;;;;4973192;28;20730;-72
2023/10/07 13:08:18;;;;;;;5.78;3.63;;;24.30;99.90;;;;;;4973275;28;20162;-72
2023/10/07 13:10:44;;;;;;;4.38;3.90;;;24.60;99.90;;;;;;4973542;28;20263;-69
2023/10/07 13:13:13;;;;;;;7.05;3.50;;;24.80;99.90;;;;;;4973367;28;20801;-68
2023/10/07 13:15:41;;;;;;;8.23;3.35;;;24.90;99.90;;;;;;4973287;28;20529;-72
2023/10/07 13:18:09;;;;;;;4.20;3.10;;;25.00;99.90;;;;;;4973296;28;20252;-70
2023/10/07 13:20:35;;;;;;;5.10;3.33;;;25.00;99.90;;;;;;4973292;28;20718;-71
2023/10/07 13:23:03;;;;;;;5.13;3.63;;;25.00;99.90;;;;;;4973175;28;20170;-69
2023/10/07 13:25:31;;;;;;;7.68;3.40;;;25.10;99.90;;;;;;4973218;28;20174;-71
2023/10/07 13:27:59;;;;;;;5.50;3.70;;;24.90;99.90;;;;;;4973037;28;20253;-72